Time;durP1;ratioP1;P1;durP2;ratioP2;P2;SDS_P1;SDS_P2;PMS_P1;PMS_P2;Temp;Humidity;BMP_temperature;BMP_pressure;BME280_temperature;BME280_humidity;BME280_pressure;Samples;Min_cycle;Max_cycle;Signal;HPM_P1;HPM_P2
2023/06/16 00:02:12;;;;;;;19.80;10.60;;;;;;;26.80;46.46;99862.50;107434;1264;70229;-68
2023/06/16 00:04:44;;;;;;;19.60;10.20;;;;;;;26.76;46.64;99859.55;108078;1251;194765;-68
2023/06/16 00:07:11;;;;;;;14.50;9.40;;;;;;;26.67;46.60;99860.63;108284;1255;61677;-67
2023/06/16 00:09:38;;;;;;;13.30;9.80;;;;;;;26.68;46.91;99856.29;108340;1254;59135;-65
2023/06/16 00:12:07;;;;;;;13.70;9.70;;;;;;;26.70;46.95;99857.30;108303;1251;72203;-67
2023/06/16 00:14:37;;;;;;;15.10;8.70;;;;;;;26.39;47.53;99852.20;108368;1249;69921;-66
2023/06/16 00:17:06;;;;;;;15.90;9.70;;;;;;;26.08;48.02;99850.76;108363;1250;71981;-67
2023/06/16 00:19:34;;;;;;;16.90;10.40;;;;;;;25.98;48.31;99849.48;108267;1251;61388;-64
2023/06/16 00:22:03;;;;;;;19.40;9.90;;;;;;;26.04;48.25;99846.11;108228;1251;60099;-66
2023/06/16 00:24:32;;;;;;;19.90;10.60;;;;;;;26.14;48.15;99846.39;108245;1251;73088;-66
2023/06/16 00:27:02;;;;;;;19.00;9.80;;;;;;;26.18;48.13;99843.44;108196;1251;70236;-65
2023/06/16 00:29:30;;;;;;;17.10;10.50;;;;;;;25.96;48.52;99840.21;108217;1251;73421;-67
2023/06/16 00:31:57;;;;;;;20.20;9.80;;;;;;;25.95;48.58;99841.41;108096;1254;60930;-66
2023/06/16 00:34:24;;;;;;;14.10;9.60;;;;;;;25.78;48.80;99837.23;108198;1256;60466;-67
2023/06/16 00:36:52;;;;;;;16.00;10.60;;;;;;;25.78;48.92;99839.21;108216;1251;72955;-66
2023/06/16 00:39:22;;;;;;;14.90;9.60;;;;;;;25.86;48.52;99838.16;108200;1254;68917;-66
2023/06/16 00:41:49;;;;;;;20.50;9.70;;;;;;;25.95;48.49;99838.66;108201;1254;71409;-67
2023/06/16 00:44:17;;;;;;;16.40;10.60;;;;;;;25.78;48.68;99834.36;108266;1254;61644;-66
2023/06/16 00:46:44;;;;;;;15.30;10.70;;;;;;;25.79;48.53;99832.98;108248;1255;59507;-67
2023/06/16 00:49:12;;;;;;;15.40;10.70;;;;;;;25.74;49.03;99833.50;108172;1254;71743;-68
2023/06/16 00:51:42;;;;;;;16.20;9.90;;;;;;;25.61;49.33;99830.95;108240;1254;69257;-65
2023/06/16 00:54:12;;;;;;;15.60;10.20;;;;;;;25.61;49.23;99832.67;108058;1254;71390;-65
2023/06/16 00:56:41;;;;;;;17.50;11.00;;;;;;;25.51;49.35;99834.33;108284;1254;60452;-66
2023/06/16 00:59:09;;;;;;;15.10;9.90;;;;;;;25.49;49.47;99833.43;108078;1253;60489;-69
2023/06/16 01:01:38;;;;;;;12.00;10.00;;;;;;;25.70;48.89;99829.91;108253;1252;71909;-65
2023/06/16 01:04:05;;;;;;;15.80;9.80;;;;;;;25.92;48.58;99829.27;108295;1253;70307;-66
2023/06/16 01:06:43;;;;;;;15.60;10.20;;;;;;;25.76;48.85;99830.05;108148;1254;70933;-65
2023/06/16 01:09:34;;;;;;;18.00;10.80;;;;;;;25.77;48.72;99827.44;108170;1253;60065;-67
2023/06/16 01:16:41;;;;;;;21.50;11.30;;;;;;;25.89;48.49;99832.45;108243;1252;72442;-66
2023/06/16 01:19:42;;;;;;;15.50;10.20;;;;;;;25.83;48.64;99832.18;108109;1254;69356;-67
2023/06/16 01:22:15;;;;;;;19.40;10.80;;;;;;;25.77;48.58;99829.77;108197;1254;72684;-68
2023/06/16 01:24:44;;;;;;;19.00;12.00;;;;;;;25.55;49.03;99829.58;108175;1253;59760;-66
2023/06/16 01:27:17;;;;;;;16.20;11.30;;;;;;;25.45;49.26;99830.66;108062;1259;60512;-66
2023/06/16 01:29:46;;;;;;;16.40;12.20;;;;;;;25.29;49.67;99836.06;108187;1254;72891;-66
2023/06/16 01:32:14;;;;;;;17.70;11.70;;;;;;;25.36;49.78;99831.35;108059;1254;69964;-67
2023/06/16 01:34:42;;;;;;;12.40;9.50;;;;;;;25.39;49.68;99831.27;108136;1253;72070;-67
2023/06/16 01:37:12;;;;;;;;;;;;;;;25.44;49.51;99831.09;108124;1254;61663;-67
2023/06/16 01:39:40;;;;;;;13.30;10.10;;;;;;;25.39;49.68;99832.85;108119;1252;59851;-66
2023/06/16 01:42:07;;;;;;;18.70;11.60;;;;;;;25.44;49.40;99837.39;108155;1252;73100;-66
2023/06/16 01:44:34;;;;;;;21.20;12.50;;;;;;;25.54;49.37;99832.19;107936;1254;70663;-65
2023/06/16 01:47:02;;;;;;;16.10;11.50;;;;;;;25.62;49.10;99831.73;107981;1253;72536;-65
2023/06/16 01:49:29;;;;;;;18.70;11.60;;;;;;;25.64;49.21;99832.40;108075;1252;61859;-65
2023/06/16 01:51:57;;;;;;;22.90;10.10;;;;;;;25.71;48.89;99830.85;108225;1252;59560;-66
2023/06/16 01:54:24;;;;;;;16.30;11.50;;;;;;;25.74;48.77;99827.94;108136;1256;73016;-66
2023/06/16 01:56:51;;;;;;;21.00;12.80;;;;;;;25.72;48.76;99830.23;108269;1254;70402;-67
2023/06/16 01:59:19;;;;;;;27.70;13.20;;;;;;;25.68;48.78;99826.94;107995;1255;72651;-66
2023/06/16 02:01:53;;;;;;;14.90;9.30;;;;;;;25.65;48.97;99827.55;108190;1254;60457;-66
2023/06/16 02:04:23;;;;;;;17.70;12.60;;;;;;;25.68;49.05;99829.39;108157;1252;60788;-66
2023/06/16 02:07:04;;;;;;;16.40;11.90;;;;;;;25.60;49.14;99827.03;107992;1254;72810;-66
2023/06/16 02:09:31;;;;;;;;;;;;;;;25.47;49.54;99826.86;108187;1256;68916;-65
2023/06/16 02:11:58;;;;;;;18.50;11.70;;;;;;;25.42;49.59;99827.56;108145;1254;72515;-66
2023/06/16 02:14:27;;;;;;;16.00;11.40;;;;;;;25.45;49.60;99825.91;108141;1252;60427;-65
2023/06/16 02:16:56;;;;;;;19.20;12.10;;;;;;;25.57;49.41;99823.38;108081;1252;60048;-67
2023/06/16 02:19:23;;;;;;;15.90;10.70;;;;;;;25.61;49.23;99824.23;108177;1254;73366;-66
2023/06/16 02:21:57;;;;;;;15.50;11.00;;;;;;;25.62;49.34;99824.85;108145;1254;69924;-67
2023/06/16 02:24:26;;;;;;;16.90;12.30;;;;;;;25.60;49.47;99826.28;108119;1253;71366;-67
2023/06/16 02:26:54;;;;;;;12.50;10.00;;;;;;;25.68;49.43;99827.45;108080;1254;60469;-66
2023/06/16 02:29:21;;;;;;;18.00;11.60;;;;;;;25.68;49.41;99827.11;108079;1254;59447;-68
2023/06/16 02:31:51;;;;;;;15.20;10.50;;;;;;;25.76;49.16;99831.29;108129;1254;73212;-65
2023/06/16 02:34:18;;;;;;;13.70;10.60;;;;;;;25.78;49.25;99832.03;108079;1254;69934;-66
2023/06/16 02:36:49;;;;;;;21.60;12.90;;;;;;;25.79;49.04;99835.14;108113;1254;71347;-67
2023/06/16 02:39:18;;;;;;;19.80;12.10;;;;;;;25.76;49.28;99836.91;108040;1253;60595;-65
2023/06/16 02:41:46;;;;;;;23.40;13.70;;;;;;;25.87;48.97;99833.59;108161;1256;59987;-66
2023/06/16 02:44:14;;;;;;;22.80;13.40;;;;;;;25.84;49.30;99832.45;108098;1252;73083;-65
2023/06/16 02:46:42;;;;;;;23.90;13.70;;;;;;;25.80;49.47;99832.55;108109;1254;70219;-66
2023/06/16 02:49:12;;;;;;;21.60;14.00;;;;;;;24.64;51.93;99837.16;108048;1254;71399;-67
2023/06/16 02:51:49;;;;;;;21.30;12.60;;;;;;;24.26;53.51;99833.45;108019;1253;62098;-67
2023/06/16 02:54:17;;;;;;;19.40;12.70;;;;;;;25.19;51.90;99832.81;108011;1254;60474;-68
2023/06/16 02:56:45;;;;;;;25.40;12.80;;;;;;;25.82;50.34;99834.08;108049;1254;72489;-66
2023/06/16 02:59:15;;;;;;;17.00;11.30;;;;;;;26.16;49.64;99834.85;108064;1254;70761;-66
2023/06/16 03:01:43;;;;;;;21.00;11.80;;;;;;;26.39;49.29;99832.05;108108;1254;72465;-66
2023/06/16 03:04:20;;;;;;;22.50;11.60;;;;;;;26.34;49.18;99831.59;108145;1253;61945;-66
2023/06/16 03:07:04;;;;;;;20.30;11.90;;;;;;;26.18;49.62;99832.73;108218;1254;60142;-67
2023/06/16 03:09:36;;;;;;;19.60;11.10;;;;;;;26.28;49.43;99833.54;108040;1259;71809;-67
2023/06/16 03:12:07;;;;;;;16.40;11.00;;;;;;;26.34;49.40;99828.73;108172;1254;68398;-66
2023/06/16 03:14:37;;;;;;;18.20;10.60;;;;;;;26.33;49.53;99831.05;108157;1254;71995;-67
2023/06/16 03:17:13;;;;;;;18.10;11.00;;;;;;;26.28;49.45;99832.84;108086;1254;61693;-67
2023/06/16 03:19:42;;;;;;;15.10;10.90;;;;;;;26.24;49.71;99832.92;108066;1254;60011;-66
2023/06/16 03:22:10;;;;;;;15.80;10.80;;;;;;;26.34;49.38;99836.25;108166;1252;72390;-66
2023/06/16 03:24:43;;;;;;;14.60;10.30;;;;;;;26.47;49.35;99840.09;108203;1254;68957;-66
2023/06/16 03:27:15;;;;;;;15.30;9.10;;;;;;;26.46;49.45;99837.52;108092;1257;70872;-65
2023/06/16 03:29:56;;;;;;;20.60;10.90;;;;;;;26.33;49.53;99838.23;108180;1254;61747;-68
2023/06/16 03:32:27;;;;;;;13.90;10.30;;;;;;;26.44;49.52;99839.88;108159;1256;60012;-66
2023/06/16 03:34:55;;;;;;;16.50;10.00;;;;;;;26.47;49.56;99843.19;108154;1252;73008;-67
2023/06/16 03:37:23;;;;;;;14.70;10.40;;;;;;;26.68;49.09;99844.55;108099;1254;69367;-67
2023/06/16 03:39:53;;;;;;;13.90;10.00;;;;;;;26.79;49.13;99842.60;108031;1259;72372;-67
2023/06/16 03:42:21;;;;;;;14.40;10.00;;;;;;;26.82;49.15;99842.09;108069;1254;60722;-66
2023/06/16 03:44:50;;;;;;;16.30;9.50;;;;;;;27.07;48.83;99844.75;107978;1253;60007;-66
2023/06/16 03:47:19;;;;;;;13.10;8.80;;;;;;;27.23;48.51;99845.86;108171;1252;71020;-66
2023/06/16 03:49:49;;;;;;;20.50;11.00;;;;;;;27.35;48.13;99845.38;108032;1254;70317;-66
2023/06/16 03:52:16;;;;;;;17.30;9.80;;;;;;;27.38;48.34;99847.64;108136;1256;71806;-67
2023/06/16 03:54:44;;;;;;;17.40;9.60;;;;;;;27.70;47.73;99846.14;108235;1252;60548;-68
2023/06/16 03:57:15;;;;;;;;;;;;;;;27.77;47.48;99846.10;108146;1253;60245;-67
2023/06/16 03:59:42;;;;;;;15.20;10.60;;;;;;;27.77;47.76;99847.85;108131;1253;73557;-66
2023/06/16 04:02:10;;;;;;;20.00;9.60;;;;;;;27.88;47.78;99846.39;108156;1256;69518;-66
2023/06/16 04:04:45;;;;;;;15.50;9.50;;;;;;;28.07;47.85;99844.11;108151;1253;72710;-66
2023/06/16 04:07:15;;;;;;;18.10;9.60;;;;;;;28.38;47.67;99844.71;108184;1254;61651;-67
2023/06/16 04:09:43;;;;;;;;;;;;;;;28.80;47.07;99841.65;108216;1253;59953;-68
2023/06/16 04:12:11;;;;;;;18.10;9.80;;;;;;;29.10;46.65;99841.55;108098;1254;73847;-67
2023/06/16 04:14:40;;;;;;;22.60;10.20;;;;;;;29.37;45.90;99842.77;108190;1254;70474;-66
2023/06/16 04:17:11;;;;;;;15.50;9.00;;;;;;;29.67;44.98;99837.80;108247;1254;72639;-67
2023/06/16 04:19:41;;;;;;;19.10;9.10;;;;;;;29.95;44.05;99843.77;108022;1254;60966;-66
2023/06/16 04:22:15;;;;;;;18.00;9.00;;;;;;;30.18;43.53;99848.46;108156;1254;60164;-68
2023/06/16 04:24:47;;;;;;;17.50;8.80;;;;;;;30.64;42.46;99845.73;108180;1253;73163;-66
2023/06/16 04:27:15;;;;;;;17.80;8.50;;;;;;;31.21;41.78;99852.98;108095;1254;71060;-67
2023/06/16 04:29:45;;;;;;;18.90;8.40;;;;;;;31.39;40.96;99849.27;108155;1254;71465;-66
2023/06/16 04:32:16;;;;;;;14.70;8.30;;;;;;;31.59;40.51;99850.66;108102;1254;60520;-66
2023/06/16 04:34:49;;;;;;;16.20;7.60;;;;;;;32.10;39.50;99842.67;108122;1256;60049;-67
2023/06/16 04:37:17;;;;;;;18.00;7.40;;;;;;;32.38;37.97;99842.05;108152;1254;74598;-66
2023/06/16 04:39:47;;;;;;;21.30;6.30;;;;;;;32.48;37.38;99842.09;108130;1254;68870;-67
2023/06/16 04:42:18;;;;;;;13.10;5.60;;;;;;;32.52;36.38;99844.90;108075;1254;71437;-67
2023/06/16 04:44:46;;;;;;;12.20;5.70;;;;;;;32.62;35.84;99844.63;108052;1254;60534;-65
2023/06/16 04:47:13;;;;;;;15.50;5.30;;;;;;;32.93;35.27;99845.00;107900;1254;60343;-68
2023/06/16 04:49:43;;;;;;;11.70;4.00;;;;;;;32.89;34.24;99846.34;107942;1253;65375;-65
2023/06/16 04:52:11;;;;;;;15.30;4.30;;;;;;;32.80;33.71;99848.06;108083;1254;69203;-68
2023/06/16 04:54:45;;;;;;;8.30;4.30;;;;;;;32.83;32.93;99848.32;107970;1254;72994;-66
2023/06/16 04:57:19;;;;;;;10.10;4.30;;;;;;;33.06;32.83;99850.89;108045;1252;60405;-67
2023/06/16 04:59:47;;;;;;;15.60;4.60;;;;;;;33.13;32.75;99848.97;108064;1254;59561;-68
2023/06/16 05:02:17;;;;;;;9.30;4.20;;;;;;;33.27;31.72;99851.82;107957;1254;73825;-68
2023/06/16 05:04:44;;;;;;;20.50;4.50;;;;;;;33.38;31.26;99855.40;108123;1254;69923;-66
2023/06/16 05:07:13;;;;;;;13.60;4.40;;;;;;;33.50;31.10;99851.90;108110;1254;70654;-67
2023/06/16 05:09:41;;;;;;;17.80;4.30;;;;;;;33.51;31.25;99849.45;108032;1255;60353;-68
2023/06/16 05:12:09;;;;;;;15.60;4.30;;;;;;;33.76;31.07;99854.04;108081;1258;60559;-68
2023/06/16 05:14:37;;;;;;;12.60;4.20;;;;;;;34.08;30.34;99850.61;107992;1259;63648;-68
2023/06/16 05:17:05;;;;;;;13.80;4.00;;;;;;;34.19;29.90;99853.54;108035;1253;69155;-67
2023/06/16 05:19:32;;;;;;;8.90;4.50;;;;;;;34.39;30.28;99852.98;107933;1254;63785;-66
2023/06/16 05:22:00;;;;;;;10.00;4.30;;;;;;;34.53;29.78;99857.84;108067;1254;60332;-68
2023/06/16 05:24:32;;;;;;;14.70;4.40;;;;;;;34.65;29.75;99859.98;108102;1255;60444;-67
2023/06/16 05:27:00;;;;;;;11.20;4.10;;;;;;;34.88;29.89;99858.30;108108;1255;64937;-68
2023/06/16 05:29:33;;;;;;;12.70;4.60;;;;;;;35.08;29.44;99860.69;108094;1259;61050;-68
2023/06/16 05:32:03;;;;;;;16.00;5.00;;;;;;;35.14;29.12;99858.97;108016;1254;64288;-69
2023/06/16 05:34:30;;;;;;;9.70;4.50;;;;;;;35.32;28.47;99862.94;108121;1254;60380;-68
2023/06/16 05:36:57;;;;;;;8.60;3.90;;;;;;;35.40;27.39;99866.17;108082;1255;60412;-68
2023/06/16 05:39:27;;;;;;;10.10;4.10;;;;;;;35.17;26.35;99864.88;108219;1254;65274;-68
2023/06/16 05:41:55;;;;;;;11.00;3.70;;;;;;;35.06;26.24;99866.98;108102;1254;61587;-68
2023/06/16 05:44:26;;;;;;;15.00;3.70;;;;;;;34.84;26.00;99866.35;108319;1254;62481;-69
2023/06/16 05:46:53;;;;;;;7.80;3.70;;;;;;;34.76;25.74;99867.71;108168;1255;60397;-68
2023/06/16 05:49:26;;;;;;;6.90;3.30;;;;;;;34.71;25.65;99871.32;108068;1254;60213;-65
2023/06/16 05:51:53;;;;;;;8.30;3.80;;;;;;;34.77;25.94;99872.72;108186;1256;64891;-69
2023/06/16 05:54:20;;;;;;;12.30;3.70;;;;;;;35.02;25.93;99871.54;108164;1254;61384;-66
2023/06/16 05:56:48;;;;;;;12.80;3.60;;;;;;;35.38;25.35;99872.27;108020;1255;62993;-67
2023/06/16 05:59:15;;;;;;;6.00;3.50;;;;;;;35.60;25.67;99876.73;108147;1254;59239;-68
2023/06/16 06:01:43;;;;;;;17.90;3.70;;;;;;;35.69;25.26;99877.52;108062;1257;60316;-69
2023/06/16 06:04:15;;;;;;;11.10;4.30;;;;;;;36.05;24.91;99876.08;108206;1254;67346;-68
2023/06/16 06:06:43;;;;;;;14.80;4.30;;;;;;;36.38;24.55;99875.73;108115;1254;60952;-67
2023/06/16 06:09:10;;;;;;;8.90;3.30;;;;;;;36.59;23.91;99873.14;108234;1260;62533;-69
2023/06/16 06:11:45;;;;;;;12.50;3.40;;;;;;;36.57;23.39;99877.25;108197;1252;60504;-68
2023/06/16 06:14:14;;;;;;;10.90;3.30;;;;;;;36.69;23.41;99874.45;108075;1252;60389;-68
2023/06/16 06:17:07;;;;;;;8.20;3.70;;;;;;;36.89;23.52;99869.39;108155;1255;65185;-70
2023/06/16 06:19:53;;;;;;;;;;;;;;;;;;;;;
2023/06/16 06:25:35;;;;;;;12.80;3.80;;;;;;;37.64;22.42;99867.40;108114;1255;60542;-69
2023/06/16 06:28:05;;;;;;;10.40;4.10;;;;;;;37.66;22.71;99866.69;108124;1254;60932;-68
2023/06/16 06:30:32;;;;;;;12.10;4.20;;;;;;;37.97;22.87;99862.90;108143;1255;65938;-68
2023/06/16 06:33:00;;;;;;;7.30;3.40;;;;;;;38.22;22.02;99861.88;108147;1254;62975;-68
2023/06/16 06:35:28;;;;;;;10.80;4.30;;;;;;;38.20;21.57;99865.30;108190;1253;63728;-67
2023/06/16 06:37:58;;;;;;;10.40;3.80;;;;;;;38.45;21.69;99866.56;108181;1253;60475;-69
2023/06/16 06:40:26;;;;;;;8.30;3.40;;;;;;;38.59;21.41;99864.19;107967;1254;60293;-67
2023/06/16 06:42:55;;;;;;;9.20;3.80;;;;;;;38.46;21.51;99863.89;108081;1255;65753;-68
2023/06/16 06:45:30;;;;;;;6.90;3.40;;;;;;;38.70;21.49;99863.88;108187;1254;61351;-68
2023/06/16 06:47:58;;;;;;;7.80;3.20;;;;;;;39.07;21.13;99862.36;107934;1255;62514;-70
2023/06/16 06:50:25;;;;;;;7.80;3.90;;;;;;;39.19;21.02;99861.29;107981;1254;59685;-69
2023/06/16 06:52:52;;;;;;;13.10;4.00;;;;;;;39.24;21.12;99861.94;108089;1254;61018;-68
2023/06/16 06:55:20;;;;;;;9.20;3.30;;;;;;;39.10;20.04;99858.90;108027;1254;64935;-68
2023/06/16 06:57:49;;;;;;;6.20;2.80;;;;;;;39.04;19.47;99859.86;108141;1254;61358;-68
2023/06/16 07:00:17;;;;;;;9.50;3.70;;;;;;;38.99;19.72;99860.93;108067;1258;62476;-69
2023/06/16 07:02:48;;;;;;;8.30;3.30;;;;;;;38.81;19.86;99857.86;108072;1252;60502;-69
2023/06/16 07:05:18;;;;;;;7.00;2.70;;;;;;;38.51;19.58;99857.88;108043;1259;60348;-67
2023/06/16 07:07:46;;;;;;;7.40;3.50;;;;;;;38.38;19.84;99855.80;108042;1253;64955;-69
2023/06/16 07:10:16;;;;;;;12.40;3.40;;;;;;;38.45;20.19;99851.00;108123;1254;60638;-68
2023/06/16 07:12:46;;;;;;;12.40;2.80;;;;;;;38.76;19.73;99850.33;108078;1259;63793;-69
2023/06/16 07:15:16;;;;;;;7.50;2.60;;;;;;;38.84;19.19;99847.72;108049;1254;60377;-67
2023/06/16 07:17:43;;;;;;;8.30;3.20;;;;;;;38.67;19.51;99851.79;108072;1253;61277;-68
2023/06/16 07:20:11;;;;;;;11.20;3.50;;;;;;;38.59;19.53;99846.36;108085;1254;63714;-68
2023/06/16 07:22:45;;;;;;;18.60;4.20;;;;;;;38.58;19.96;99847.33;108180;1254;63847;-68
2023/06/16 07:25:12;;;;;;;7.30;2.90;;;;;;;38.74;19.48;99849.27;108075;1259;63884;-68
2023/06/16 07:27:42;;;;;;;6.60;2.80;;;;;;;38.84;19.36;99847.08;108027;1259;60401;-69
2023/06/16 07:30:13;;;;;;;13.10;3.80;;;;;;;38.85;19.37;99846.92;108044;1254;60326;-70
2023/06/16 07:32:42;;;;;;;5.80;2.90;;;;;;;38.72;19.48;99845.81;108036;1254;63691;-72
2023/06/16 07:35:10;;;;;;;7.40;3.20;;;;;;;38.70;19.92;99844.13;107999;1254;61315;-69
2023/06/16 07:37:38;;;;;;;23.00;3.90;;;;;;;38.65;19.97;99841.57;108086;1254;63781;-68
2023/06/16 07:40:08;;;;;;;11.90;3.00;;;;;;;38.67;19.92;99842.25;108078;1255;60316;-68
2023/06/16 07:42:45;;;;;;;9.30;3.20;;;;;;;38.70;19.71;99842.25;108175;1253;60325;-69
2023/06/16 07:45:13;;;;;;;11.50;2.80;;;;;;;38.98;19.79;99842.20;108155;1254;64981;-69
2023/06/16 07:47:41;;;;;;;12.60;3.20;;;;;;;39.05;19.52;99839.92;108133;1252;60382;-69
2023/06/16 07:50:12;;;;;;;7.50;3.10;;;;;;;39.37;18.83;99841.25;108139;1254;63716;-69
2023/06/16 07:52:41;;;;;;;6.80;2.80;;;;;;;39.37;19.09;99842.35;108146;1257;60335;-68
2023/06/16 07:55:10;;;;;;;11.60;3.30;;;;;;;39.52;18.93;99844.97;108258;1256;60325;-68
2023/06/16 07:57:42;;;;;;;8.80;3.10;;;;;;;39.85;18.85;99844.90;108126;1252;65162;-69
2023/06/16 08:00:11;;;;;;;5.40;3.20;;;;;;;40.05;18.71;99843.44;108226;1254;61411;-69
2023/06/16 08:02:42;;;;;;;9.30;2.90;;;;;;;40.39;18.82;99836.20;108209;1254;62997;-69
2023/06/16 08:05:10;;;;;;;10.40;3.10;;;;;;;40.59;18.31;99834.59;108253;1254;60319;-68
2023/06/16 08:07:38;;;;;;;6.20;3.00;;;;;;;40.78;18.21;99834.73;108166;1253;60114;-69
2023/06/16 08:10:06;;;;;;;7.00;3.30;;;;;;;40.46;18.11;99839.37;108229;1253;63638;-69
2023/06/16 08:12:36;;;;;;;8.20;2.90;;;;;;;40.20;18.36;99839.58;108154;1254;61283;-70
2023/06/16 08:15:04;;;;;;;10.80;3.20;;;;;;;40.24;18.83;99841.88;108174;1253;63721;-67
2023/06/16 08:17:32;;;;;;;7.40;3.60;;;;;;;40.41;18.53;99842.69;108196;1254;60356;-69
2023/06/16 08:20:02;;;;;;;8.70;3.00;;;;;;;40.70;18.49;99838.62;108227;1254;59658;-70
2023/06/16 08:22:31;;;;;;;10.20;3.00;;;;;;;41.10;18.53;99835.86;108139;1254;64976;-70
2023/06/16 08:24:58;;;;;;;12.50;3.40;;;;;;;41.70;18.48;99839.86;108078;1258;61375;-68
2023/06/16 08:27:29;;;;;;;10.10;3.30;;;;;;;42.01;17.94;99840.56;108165;1254;63932;-68
2023/06/16 08:29:57;;;;;;;13.20;3.00;;;;;;;41.80;18.15;99841.25;108175;1253;60440;-68
2023/06/16 08:32:24;;;;;;;10.60;3.50;;;;;;;41.63;18.20;99843.44;108177;1254;59908;-68
2023/06/16 08:34:52;;;;;;;7.90;3.00;;;;;;;41.68;18.57;99841.42;108089;1253;63679;-69
2023/06/16 08:37:19;;;;;;;5.90;3.00;;;;;;;41.60;18.42;99845.35;108217;1254;61406;-69
2023/06/16 08:40:00;;;;;;;15.20;3.20;;;;;;;41.39;18.39;99844.67;108228;1254;62750;-69
2023/06/16 08:42:30;;;;;;;7.10;3.00;;;;;;;41.40;18.52;99836.73;107993;1254;60439;-68
2023/06/16 08:44:57;;;;;;;7.20;3.20;;;;;;;41.66;18.14;99831.83;107986;1253;60530;-70
2023/06/16 08:47:25;;;;;;;11.90;3.30;;;;;;;41.86;18.10;99833.87;108101;1254;63790;-69
2023/06/16 08:49:54;;;;;;;11.20;3.20;;;;;;;41.92;18.25;99830.23;108084;1254;60259;-69
2023/06/16 08:52:23;;;;;;;11.80;3.80;;;;;;;41.97;18.40;99828.27;108014;1257;63882;-69
2023/06/16 08:55:12;;;;;;;9.90;3.50;;;;;;;42.57;17.78;99822.45;107952;1254;60341;-69
2023/06/16 08:58:00;;;;;;;14.20;3.40;;;;;;;42.69;17.10;99822.68;108113;1259;59172;-69
2023/06/16 09:00:30;;;;;;;8.70;3.00;;;;;;;42.54;17.16;99824.94;108084;1253;66390;-67
2023/06/16 09:03:00;;;;;;;8.00;3.20;;;;;;;42.39;17.51;99822.91;108094;1254;71634;-70
2023/06/16 09:05:27;;;;;;;13.60;3.20;;;;;;;42.26;17.68;99825.83;108060;1254;65250;-68
2023/06/16 09:07:56;;;;;;;9.80;2.80;;;;;;;42.26;17.71;99823.66;108051;1255;60444;-70
2023/06/16 09:10:25;;;;;;;11.00;3.10;;;;;;;42.54;17.58;99819.89;108080;1254;60430;-68
2023/06/16 09:12:53;;;;;;;8.10;3.10;;;;;;;42.88;17.38;99818.76;108084;1254;65035;-69
2023/06/16 09:15:22;;;;;;;9.90;3.50;;;;;;;42.88;17.51;99816.98;107983;1254;61481;-69
2023/06/16 09:17:51;;;;;;;9.60;3.30;;;;;;;42.77;17.68;99814.91;108091;1254;62551;-70
2023/06/16 09:20:19;;;;;;;10.80;3.20;;;;;;;42.84;17.55;99820.46;108068;1254;60408;-69
2023/06/16 09:22:56;;;;;;;9.40;2.90;;;;;;;43.04;17.28;99817.01;108159;1254;59324;-69
2023/06/16 09:25:26;;;;;;;13.80;3.20;;;;;;;43.19;16.93;99818.67;108174;1254;64924;-70
2023/06/16 09:27:56;;;;;;;10.10;3.30;;;;;;;43.04;17.28;99826.39;108131;1255;60325;-68
2023/06/16 09:30:30;;;;;;;7.80;2.90;;;;;;;42.96;17.30;99823.00;108090;1254;63824;-69
2023/06/16 09:32:57;;;;;;;9.50;3.20;;;;;;;42.74;17.64;99820.35;108041;1254;60443;-69
2023/06/16 09:35:26;;;;;;;8.80;3.00;;;;;;;42.83;17.52;99818.81;108064;1254;60440;-69
2023/06/16 09:37:59;;;;;;;9.10;3.10;;;;;;;42.91;17.27;99820.30;107947;1253;65089;-68
2023/06/16 09:40:30;;;;;;;8.90;2.90;;;;;;;42.92;17.24;99818.08;108183;1254;61326;-68
2023/06/16 09:42:59;;;;;;;8.60;3.00;;;;;;;43.39;17.07;99816.20;108215;1253;65778;-67
2023/06/16 09:45:28;;;;;;;7.00;2.80;;;;;;;43.79;16.73;99817.71;108182;1254;61046;-68
2023/06/16 09:47:56;;;;;;;11.20;3.00;;;;;;;44.05;16.72;99809.84;107964;1254;60427;-69
2023/06/16 09:50:26;;;;;;;5.80;3.00;;;;;;;44.14;16.52;99811.29;108023;1254;64885;-71
2023/06/16 09:52:54;;;;;;;7.40;2.80;;;;;;;43.94;16.55;99807.84;108021;1254;61584;-70
2023/06/16 09:55:26;;;;;;;8.80;3.00;;;;;;;44.02;16.54;99798.19;108100;1256;62492;-70
2023/06/16 09:57:53;;;;;;;9.70;3.30;;;;;;;44.25;16.39;99798.44;108126;1255;60521;-69
2023/06/16 10:00:20;;;;;;;11.00;3.60;;;;;;;44.11;16.50;99798.04;108047;1257;59300;-70
2023/06/16 10:02:49;;;;;;;15.10;3.60;;;;;;;44.00;16.48;99799.00;108039;1253;64869;-69
2023/06/16 10:05:18;;;;;;;10.00;3.40;;;;;;;43.83;16.72;99803.77;108160;1254;61386;-70
2023/06/16 10:07:55;;;;;;;6.80;2.90;;;;;;;43.51;16.89;99799.80;108087;1254;63777;-70
2023/06/16 10:14:16;;;;;;;9.70;3.20;;;;;;;42.40;17.68;99792.69;108005;1253;59658;-69
2023/06/16 10:16:47;;;;;;;8.10;2.90;;;;;;;42.14;17.54;99787.95;108079;1258;65230;-69
2023/06/16 10:19:26;;;;;;;13.60;3.90;;;;;;;42.18;17.84;99784.52;108182;1253;61650;-68
2023/06/16 10:21:53;;;;;;;9.70;3.60;;;;;;;41.94;17.94;99780.59;108190;1254;63746;-68
2023/06/16 10:24:21;;;;;;;10.80;3.50;;;;;;;42.03;17.81;99779.51;108153;1254;60420;-69
2023/06/16 10:26:51;;;;;;;11.50;3.40;;;;;;;42.31;17.69;99772.09;108120;1254;60316;-68
2023/06/16 10:29:20;;;;;;;17.90;3.40;;;;;;;42.86;17.56;99769.06;107987;1254;64877;-70
2023/06/16 10:31:51;;;;;;;9.60;3.20;;;;;;;42.80;17.23;99771.67;107957;1252;61473;-68
2023/06/16 10:38:57;;;;;;;5.60;2.70;;;;;;;42.36;17.55;99762.75;108196;1256;59804;-69
2023/06/16 10:41:26;;;;;;;17.40;3.60;;;;;;;42.75;16.90;99759.59;108173;1253;60495;-70
2023/06/16 10:43:53;;;;;;;7.80;2.90;;;;;;;43.29;17.25;99758.45;108269;1253;75493;-70
2023/06/16 10:46:21;;;;;;;7.70;3.30;;;;;;;43.50;16.83;99759.00;108113;1254;61424;-69
2023/06/16 10:49:10;;;;;;;8.90;3.40;;;;;;;43.73;16.39;99756.15;108064;1254;62467;-68
2023/06/16 10:51:48;;;;;;;6.80;3.20;;;;;;;43.66;16.32;99753.90;108067;1254;60270;-69
2023/06/16 10:54:35;;;;;;;9.00;3.10;;;;;;;43.16;16.63;99752.51;108082;1254;60293;-68
2023/06/16 10:57:06;;;;;;;7.70;2.70;;;;;;;42.49;17.14;99744.94;108070;1260;63899;-67
2023/06/16 11:00:11;;;;;;;7.70;3.50;;;;;;;42.11;17.51;99739.77;108051;1254;61855;-67
2023/06/16 11:02:49;;;;;;;10.30;3.10;;;;;;;42.44;17.49;99739.91;108146;1254;63701;-67
2023/06/16 11:05:22;;;;;;;5.00;2.50;;;;;;;42.40;17.18;99741.73;108162;1253;60402;-69
2023/06/16 11:07:57;;;;;;;8.20;3.20;;;;;;;42.51;16.97;99731.77;108238;1254;60324;-69
2023/06/16 11:10:25;;;;;;;9.40;3.50;;;;;;;42.57;17.17;99730.61;108110;1254;63669;-69
2023/06/16 11:12:55;;;;;;;5.60;3.20;;;;;;;42.64;16.96;99727.48;108173;1254;60424;-70
2023/06/16 11:15:23;;;;;;;8.90;3.00;;;;;;;42.63;17.14;99726.66;108131;1258;62415;-69
2023/06/16 11:17:53;;;;;;;20.70;3.40;;;;;;;42.81;17.21;99722.83;108085;1254;61131;-68
2023/06/16 11:20:20;;;;;;;8.60;3.00;;;;;;;43.03;16.94;99724.06;108117;1254;60533;-69
2023/06/16 11:22:53;;;;;;;10.50;3.10;;;;;;;42.81;17.35;99726.66;108072;1254;64919;-69
2023/06/16 11:25:21;;;;;;;10.30;3.50;;;;;;;42.22;17.66;99725.12;108068;1254;60309;-69
2023/06/16 11:27:50;;;;;;;15.00;3.30;;;;;;;42.41;17.60;99727.67;108064;1254;63745;-69
2023/06/16 11:30:17;;;;;;;9.10;3.20;;;;;;;42.32;17.73;99730.71;108078;1258;60258;-68
2023/06/16 11:32:49;;;;;;;6.80;2.90;;;;;;;42.28;17.81;99724.89;108136;1254;60348;-70
2023/06/16 11:35:19;;;;;;;9.70;2.90;;;;;;;42.15;17.78;99722.01;108037;1254;63834;-68
2023/06/16 11:37:52;;;;;;;8.70;3.10;;;;;;;42.49;17.46;99713.21;108195;1253;61386;-68
2023/06/16 11:40:27;;;;;;;6.10;3.00;;;;;;;42.92;17.46;99715.51;108126;1254;66263;-69
2023/06/16 11:43:01;;;;;;;8.20;3.10;;;;;;;42.87;17.12;99719.77;108108;1254;59570;-70
2023/06/16 11:50:29;;;;;;;8.50;3.20;;;;;;;41.70;17.84;99716.42;108163;1257;63915;-70
2023/06/16 11:53:04;;;;;;;8.20;3.00;;;;;;;41.77;17.82;99719.11;108093;1254;62234;-69
2023/06/16 11:55:33;;;;;;;9.90;3.20;;;;;;;42.13;18.01;99717.25;108031;1253;63839;-68